TAF Text Data
IDs:
Format:
Raw Decoded Include METAR

Data at: 0151 UTC 14 May 2021

KPGV 132328Z 1400/1424 08008KT P6SM FEW080
  FM140200 02003KT P6SM SKC
  FM141330 04008KT P6SM SCT070 AMD LTD TO CLD VIS AND WIND